Time;durP1;ratioP1;P1;durP2;ratioP2;P2;SDS_P1;SDS_P2;PMS_P1;PMS_P2;Temp;Humidity;BMP_temperature;BMP_pressure;BME280_temperature;BME280_humidity;BME280_pressure;Samples;Min_cycle;Max_cycle;Signal;HPM_P1;HPM_P2
2022/10/07 00:00:03;;;;;;;5.45;1.60;;;21.20;61.00;;;;;;4958063;28;87425;-84
2022/10/07 00:02:29;;;;;;;2.20;1.20;;;21.20;61.00;;;;;;4956678;28;92290;-84
2022/10/07 00:04:54;;;;;;;3.30;1.75;;;21.20;61.10;;;;;;4961279;28;87958;-84
2022/10/07 00:07:20;;;;;;;3.95;1.55;;;21.20;61.10;;;;;;4961907;28;86877;-84
2022/10/07 00:09:45;;;;;;;3.70;1.90;;;21.20;61.10;;;;;;4962203;28;87695;-84
2022/10/07 00:12:11;;;;;;;2.65;1.40;;;21.20;61.20;;;;;;4960336;28;89161;-84
2022/10/07 00:14:38;;;;;;;3.28;1.77;;;21.10;61.20;;;;;;4962886;28;87261;-84
2022/10/07 00:17:03;;;;;;;3.10;1.58;;;21.20;61.30;;;;;;4960556;28;87184;-84
2022/10/07 00:19:30;;;;;;;3.03;1.60;;;21.10;61.20;;;;;;4961272;28;87171;-84
2022/10/07 00:21:56;;;;;;;2.97;1.50;;;21.10;61.10;;;;;;4962077;28;88057;-84
2022/10/07 00:24:21;;;;;;;3.75;1.63;;;21.10;61.10;;;;;;4960515;28;88966;-84
2022/10/07 00:26:47;;;;;;;2.65;1.67;;;21.10;61.20;;;;;;4961218;28;86983;-84
2022/10/07 00:29:13;;;;;;;4.97;1.70;;;21.10;61.20;;;;;;4961585;28;86360;-84
2022/10/07 00:31:40;;;;;;;3.78;1.70;;;21.10;61.30;;;;;;4960981;28;88383;-84
2022/10/07 00:34:17;;;;;;;3.50;1.67;;;21.10;61.20;;;;;;4961050;28;87750;-84
2022/10/07 00:36:42;;;;;;;3.67;1.67;;;21.10;61.30;;;;;;4961316;28;88351;-84
2022/10/07 00:39:12;;;;;;;4.18;1.88;;;21.10;61.30;;;;;;4960795;28;87601;-84
2022/10/07 00:41:43;;;;;;;3.70;2.00;;;21.10;61.40;;;;;;4962005;28;88483;-84
2022/10/07 00:44:28;;;;;;;3.20;1.60;;;21.10;61.40;;;;;;4959579;28;91293;-84
2022/10/07 00:46:54;;;;;;;3.38;1.80;;;21.10;61.40;;;;;;4961088;28;86882;-84
2022/10/07 00:49:20;;;;;;;2.95;1.65;;;21.10;61.40;;;;;;4960540;28;87285;-84
2022/10/07 00:51:49;;;;;;;3.15;1.88;;;21.00;61.30;;;;;;4951949;28;88096;-84
2022/10/07 00:54:16;;;;;;;4.07;1.50;;;21.00;61.40;;;;;;4960679;28;88380;-84
2022/10/07 00:56:53;;;;;;;3.70;1.83;;;21.00;61.40;;;;;;4962314;28;86853;-84
2022/10/07 00:59:20;;;;;;;3.63;2.13;;;21.10;61.50;;;;;;4975630;28;94764;-84
2022/10/07 01:01:45;;;;;;;4.15;1.90;;;21.00;61.20;;;;;;4960278;28;89076;-84
2022/10/07 01:04:13;;;;;;;2.97;1.30;;;21.00;61.10;;;;;;4959227;28;91981;-84
2022/10/07 01:06:39;;;;;;;3.97;1.75;;;21.00;61.30;;;;;;4961715;28;87198;-84
2022/10/07 01:09:06;;;;;;;2.42;1.40;;;21.00;61.40;;;;;;4959238;28;88075;-84
2022/10/07 01:11:41;;;;;;;3.85;1.55;;;21.00;61.30;;;;;;4961221;28;88183;-84
2022/10/07 01:14:33;;;;;;;2.80;1.73;;;21.00;61.40;;;;;;4959810;28;88304;-84
2022/10/07 01:17:14;;;;;;;2.58;1.52;;;21.00;61.50;;;;;;4960141;28;87195;-84
2022/10/07 01:20:07;;;;;;;1.90;1.38;;;21.00;61.40;;;;;;4975455;28;89368;-84
2022/10/07 01:22:43;;;;;;;5.50;1.70;;;21.00;61.30;;;;;;4960780;28;87650;-84
2022/10/07 01:25:40;;;;;;;3.08;1.35;;;20.90;61.40;;;;;;4959911;28;87795;-84
2022/10/07 01:28:11;;;;;;;4.20;1.85;;;21.00;61.50;;;;;;4960058;28;87862;-84
2022/10/07 01:30:41;;;;;;;1.63;0.95;;;21.00;61.50;;;;;;4958776;28;89049;-84
2022/10/07 01:33:14;;;;;;;2.95;1.30;;;20.90;61.20;;;;;;4959787;28;88343;-84
2022/10/07 01:35:44;;;;;;;3.00;1.58;;;21.00;61.30;;;;;;4961567;28;87677;-84
2022/10/07 01:38:12;;;;;;;3.08;1.52;;;20.90;61.20;;;;;;4960945;28;87171;-84
2022/10/07 01:41:14;;;;;;;2.22;1.30;;;20.90;61.40;;;;;;4960985;28;87530;-84
2022/10/07 01:43:41;;;;;;;2.88;1.33;;;20.90;61.30;;;;;;4957658;28;92057;-84
2022/10/07 01:46:11;;;;;;;2.55;1.55;;;20.90;61.40;;;;;;4960457;28;86698;-84
2022/10/07 01:48:36;;;;;;;3.25;1.67;;;20.90;61.30;;;;;;4950950;28;88311;-84
2022/10/07 01:51:02;;;;;;;2.72;1.73;;;20.90;61.30;;;;;;4959115;28;87061;-84
2022/10/07 01:53:54;;;;;;;1.90;1.30;;;20.90;61.20;;;;;;4959393;28;88387;-84
2022/10/07 01:56:54;;;;;;;3.40;1.75;;;20.90;61.30;;;;;;4959588;28;92958;-84
2022/10/07 01:59:29;;;;;;;3.78;1.63;;;20.90;61.30;;;;;;4961262;28;87514;-84
2022/10/07 02:02:05;;;;;;;2.65;1.42;;;20.90;61.30;;;;;;4958857;28;88463;-84
2022/10/07 02:04:52;;;;;;;2.85;1.60;;;20.90;61.30;;;;;;4957346;28;91450;-84
2022/10/07 02:07:33;;;;;;;2.22;1.55;;;20.90;61.30;;;;;;4959982;28;87498;-84
2022/10/07 02:10:11;;;;;;;3.10;1.80;;;20.90;61.30;;;;;;4959887;28;87633;-83
2022/10/07 02:12:43;;;;;;;2.97;1.95;;;20.90;61.30;;;;;;4960267;28;86626;-84
2022/10/07 02:15:24;;;;;;;1.95;1.40;;;20.90;61.40;;;;;;4956827;28;90886;-84
2022/10/07 02:17:53;;;;;;;3.38;1.63;;;20.90;61.30;;;;;;4959844;28;88317;-84
2022/10/07 02:20:22;;;;;;;2.78;1.20;;;20.90;61.50;;;;;;4959190;28;88562;-84
2022/10/07 02:22:50;;;;;;;2.47;1.38;;;20.80;61.30;;;;;;4959428;28;87357;-84
2022/10/07 02:25:19;;;;;;;2.60;1.30;;;20.80;61.50;;;;;;4958483;28;88751;-84
2022/10/07 02:27:48;;;;;;;2.70;1.38;;;20.80;61.50;;;;;;4959401;28;88229;-84
2022/10/07 02:30:17;;;;;;;2.28;1.27;;;20.80;61.50;;;;;;4959231;28;87540;-84
2022/10/07 02:32:54;;;;;;;1.70;0.95;;;20.80;61.50;;;;;;4959793;28;87469;-84
2022/10/07 02:35:35;;;;;;;3.60;1.58;;;20.80;61.40;;;;;;4959540;28;92184;-84
2022/10/07 02:38:06;;;;;;;2.47;1.52;;;20.80;61.30;;;;;;4959693;28;88847;-84
2022/10/07 02:40:39;;;;;;;2.47;1.30;;;20.80;61.40;;;;;;4958373;28;87267;-85
2022/10/07 02:43:27;;;;;;;3.58;1.40;;;20.80;61.30;;;;;;4959778;28;87078;-84
2022/10/07 02:46:28;;;;;;;2.10;1.30;;;20.80;61.40;;;;;;4948441;28;89624;-84
2022/10/07 02:49:00;;;;;;;1.70;1.20;;;20.80;61.40;;;;;;4889181;28;91069;-84
2022/10/07 02:51:35;;;;;;;3.22;1.50;;;20.80;61.30;;;;;;4909084;28;87610;-84
2022/10/07 02:54:03;;;;;;;3.70;1.40;;;20.80;61.50;;;;;;4907506;28;88210;-83
2022/10/07 02:56:31;;;;;;;1.80;1.00;;;20.80;61.40;;;;;;4908162;28;88325;-84
2022/10/07 02:59:10;;;;;;;3.10;1.67;;;20.70;61.40;;;;;;4908605;28;87632;-84
2022/10/07 03:01:44;;;;;;;2.03;1.30;;;20.70;61.40;;;;;;4908039;28;86981;-84
2022/10/07 03:04:10;;;;;;;1.67;1.10;;;20.80;61.50;;;;;;4906988;28;87842;-84
2022/10/07 03:06:36;;;;;;;1.63;1.00;;;20.70;61.30;;;;;;4891141;28;91998;-84
2022/10/07 03:09:02;;;;;;;1.85;1.20;;;20.80;61.20;;;;;;4915745;28;91354;-84
2022/10/07 03:11:28;;;;;;;2.22;1.20;;;20.70;61.40;;;;;;4908516;28;88184;-84
2022/10/07 03:13:53;;;;;;;2.63;1.50;;;20.80;61.40;;;;;;4907000;28;88349;-84
2022/10/07 03:16:19;;;;;;;2.70;1.27;;;20.70;61.50;;;;;;4908899;28;88716;-84
2022/10/07 03:18:45;;;;;;;2.42;1.50;;;20.70;61.40;;;;;;4907229;28;88243;-84
2022/10/07 03:21:11;;;;;;;3.03;1.33;;;20.70;61.40;;;;;;4906221;28;87370;-84
2022/10/07 03:23:37;;;;;;;2.47;1.42;;;20.70;61.40;;;;;;4908990;28;87346;-84
2022/10/07 03:26:03;;;;;;;3.10;1.42;;;20.70;61.20;;;;;;4949942;28;88255;-84
2022/10/07 03:28:32;;;;;;;1.90;1.33;;;20.60;61.20;;;;;;4959294;28;87947;-84
2022/10/07 03:31:06;;;;;;;2.50;1.38;;;20.70;61.20;;;;;;4958841;28;87508;-84
2022/10/07 03:33:37;;;;;;;2.83;1.35;;;20.70;61.10;;;;;;4958128;28;88432;-84
2022/10/07 03:36:04;;;;;;;2.58;1.60;;;20.70;61.20;;;;;;4938768;28;92536;-84
2022/10/07 03:38:30;;;;;;;2.58;1.38;;;20.70;61.10;;;;;;4956598;28;89390;-84
2022/10/07 03:40:56;;;;;;;1.88;1.17;;;20.70;61.00;;;;;;4958823;28;87022;-84
2022/10/07 03:43:23;;;;;;;2.10;1.30;;;20.70;60.90;;;;;;4948531;28;87413;-84
2022/10/07 03:45:50;;;;;;;2.88;1.48;;;20.70;61.00;;;;;;4957651;28;88211;-84
2022/10/07 03:48:16;;;;;;;2.58;1.30;;;20.80;61.00;;;;;;4949210;28;87880;-84
2022/10/07 03:50:51;;;;;;;1.50;1.13;;;20.70;61.10;;;;;;4958530;28;87334;-84
2022/10/07 03:53:17;;;;;;;2.42;1.10;;;20.70;61.20;;;;;;4958832;28;87832;-84
2022/10/07 03:55:42;;;;;;;2.90;1.40;;;20.70;61.10;;;;;;4957945;28;88402;-84
2022/10/07 03:58:08;;;;;;;2.47;1.35;;;20.70;61.20;;;;;;4957723;28;87758;-84
2022/10/07 04:00:34;;;;;;;1.48;1.05;;;20.70;61.20;;;;;;4958399;28;88436;-84
2022/10/07 04:02:59;;;;;;;2.95;1.20;;;20.70;61.00;;;;;;4958342;28;87121;-84
2022/10/07 04:05:25;;;;;;;3.00;1.48;;;20.60;61.10;;;;;;4958826;28;88849;-84
2022/10/07 04:07:51;;;;;;;2.75;1.20;;;20.60;61.20;;;;;;4954914;28;89062;-84
2022/10/07 04:10:25;;;;;;;1.58;1.00;;;20.60;61.30;;;;;;4956369;28;87357;-84
2022/10/07 04:12:51;;;;;;;2.40;1.30;;;20.60;61.40;;;;;;4954620;28;88425;-84
2022/10/07 04:15:17;;;;;;;1.98;1.23;;;20.60;61.40;;;;;;4954376;28;96226;-84
2022/10/07 04:17:45;;;;;;;1.52;1.00;;;20.60;61.40;;;;;;4956491;28;88220;-84
2022/10/07 04:20:12;;;;;;;2.30;1.30;;;20.60;61.40;;;;;;4955702;28;87790;-84
2022/10/07 04:22:38;;;;;;;1.80;1.38;;;20.70;61.40;;;;;;4955438;28;87423;-84
2022/10/07 04:27:56;;;;;;;2.80;1.20;;;20.60;61.30;;;;;;4955331;28;87929;-84
2022/10/07 04:30:24;;;;;;;2.85;1.20;;;20.60;61.30;;;;;;4939454;28;87306;-84
2022/10/07 04:32:50;;;;;;;1.98;1.17;;;20.60;61.10;;;;;;4956166;28;87011;-84
2022/10/07 04:35:17;;;;;;;1.42;1.13;;;20.60;61.20;;;;;;4955533;28;88462;-84
2022/10/07 04:37:50;;;;;;;2.92;1.30;;;20.50;61.30;;;;;;4955546;28;88250;-84
2022/10/07 04:40:18;;;;;;;1.95;1.23;;;20.60;61.20;;;;;;4947348;28;87044;-84
2022/10/07 04:45:28;;;;;;;1.85;1.05;;;20.70;61.00;;;;;;4958113;28;87238;-84
2022/10/07 04:47:53;;;;;;;1.40;1.10;;;20.60;61.00;;;;;;4958310;28;88327;-84
2022/10/07 04:50:19;;;;;;;1.92;1.05;;;20.60;60.90;;;;;;4960989;28;88356;-84
2022/10/07 04:52:45;;;;;;;2.60;1.05;;;20.60;61.10;;;;;;4960898;28;87181;-84
2022/10/07 04:55:13;;;;;;;1.80;1.00;;;20.60;61.00;;;;;;4960210;28;87533;-84
2022/10/07 04:57:39;;;;;;;1.70;1.15;;;20.60;61.10;;;;;;4938307;28;90288;-84
2022/10/07 05:00:06;;;;;;;2.13;1.10;;;20.60;61.00;;;;;;4938190;28;87541;-84
2022/10/07 05:02:32;;;;;;;1.95;0.95;;;20.60;61.00;;;;;;4940489;28;87503;-84
2022/10/07 05:04:58;;;;;;;1.85;1.10;;;20.60;61.10;;;;;;4938677;28;88128;-84
2022/10/07 05:07:24;;;;;;;2.17;1.25;;;20.60;61.10;;;;;;4939088;28;87723;-84
2022/10/07 05:09:52;;;;;;;3.30;1.20;;;20.60;61.00;;;;;;4939343;28;87672;-84
2022/10/07 05:12:18;;;;;;;1.40;1.02;;;20.60;60.80;;;;;;4921420;28;90396;-84
2022/10/07 05:14:44;;;;;;;1.90;1.08;;;20.70;60.80;;;;;;4922288;28;93097;-84
2022/10/07 05:17:11;;;;;;;1.95;1.10;;;20.60;60.70;;;;;;4922168;28;92179;-84
2022/10/07 05:19:36;;;;;;;1.88;1.10;;;20.70;60.60;;;;;;4938923;28;87193;-84
2022/10/07 05:22:02;;;;;;;2.50;1.27;;;20.70;60.70;;;;;;4938983;28;87618;-84
2022/10/07 05:24:28;;;;;;;2.17;1.30;;;20.60;60.60;;;;;;4937900;28;90369;-84
2022/10/07 05:26:54;;;;;;;1.40;0.80;;;20.60;60.80;;;;;;4922209;28;91242;-84
2022/10/07 05:29:20;;;;;;;1.50;1.00;;;20.60;60.70;;;;;;4955928;28;87050;-84
2022/10/07 05:31:47;;;;;;;1.85;1.00;;;20.60;60.70;;;;;;4949791;28;86765;-83
2022/10/07 05:34:14;;;;;;;2.05;1.30;;;20.60;60.50;;;;;;4960525;28;88445;-84
2022/10/07 05:36:41;;;;;;;1.38;0.85;;;20.60;60.30;;;;;;4950275;28;87974;-85
2022/10/07 05:39:07;;;;;;;2.35;1.20;;;20.60;60.50;;;;;;4948833;28;88156;-87
2022/10/07 05:41:33;;;;;;;1.25;1.00;;;20.60;59.40;;;;;;4974600;28;90281;-85
2022/10/07 05:44:00;;;;;;;1.67;0.90;;;20.70;60.30;;;;;;4949970;28;88340;-84
2022/10/07 05:46:25;;;;;;;3.15;1.30;;;20.60;60.10;;;;;;4959565;28;87892;-86
2022/10/07 05:48:52;;;;;;;2.97;1.17;;;20.60;59.90;;;;;;4958740;28;87588;-85
2022/10/07 05:51:20;;;;;;;2.75;1.25;;;20.50;60.00;;;;;;4959938;28;87458;-84
2022/10/07 05:53:48;;;;;;;4.13;1.48;;;20.50;60.60;;;;;;4961246;28;88294;-85
2022/10/07 05:56:21;;;;;;;3.42;1.23;;;20.50;61.00;;;;;;4958081;28;91267;-84
2022/10/07 05:58:47;;;;;;;3.83;1.25;;;20.50;60.70;;;;;;4960095;28;87841;-84
2022/10/07 06:01:16;;;;;;;2.55;1.20;;;20.50;60.90;;;;;;4959822;28;87477;-84
2022/10/07 06:03:46;;;;;;;2.57;1.20;;;20.50;60.70;;;;;;4973576;28;91180;-84
2022/10/07 06:06:12;;;;;;;1.35;1.08;;;20.50;60.70;;;;;;4959796;28;88409;-84
2022/10/07 06:08:38;;;;;;;3.80;1.60;;;20.50;60.70;;;;;;4960709;28;87373;-84
2022/10/07 06:13:53;;;;;;;6.18;1.42;;;20.50;60.70;;;;;;4960441;28;87165;-84
2022/10/07 06:16:21;;;;;;;4.90;1.55;;;20.40;60.70;;;;;;4959569;28;88312;-84
2022/10/07 06:18:51;;;;;;;4.67;2.03;;;20.40;60.70;;;;;;4959973;28;87029;-84
2022/10/07 06:21:17;;;;;;;8.82;1.90;;;20.40;60.70;;;;;;4957822;28;90670;-84
2022/10/07 06:23:43;;;;;;;4.45;1.75;;;20.50;60.30;;;;;;4961129;28;87920;-88
2022/10/07 06:26:10;;;;;;;2.78;1.20;;;20.50;59.50;;;;;;4958132;28;90957;-84
2022/10/07 06:28:39;;;;;;;4.43;1.60;;;20.60;59.80;;;;;;4966346;28;87928;-84
2022/10/07 06:31:07;;;;;;;7.25;1.58;;;20.60;59.70;;;;;;4960371;28;87487;-84
2022/10/07 06:33:33;;;;;;;5.00;1.77;;;20.70;59.40;;;;;;4960313;28;87186;-83
2022/10/07 06:36:02;;;;;;;4.82;2.00;;;20.70;59.10;;;;;;4959062;28;87721;-85
2022/10/07 06:38:28;;;;;;;3.75;1.67;;;20.80;58.50;;;;;;4959045;28;87302;-85
2022/10/07 06:40:58;;;;;;;6.65;2.10;;;20.80;58.80;;;;;;4948711;28;87116;-85
2022/10/07 06:43:28;;;;;;;5.22;1.40;;;20.90;58.70;;;;;;4959805;28;88415;-84
2022/10/07 06:46:00;;;;;;;5.00;1.88;;;20.90;59.00;;;;;;4961082;28;87601;-85
2022/10/07 06:48:25;;;;;;;8.07;2.05;;;20.90;59.10;;;;;;4958777;28;86909;-85
2022/10/07 06:50:52;;;;;;;33.17;6.45;;;20.90;59.00;;;;;;4960693;28;87714;-85
2022/10/07 06:53:18;;;;;;;37.13;7.57;;;21.00;59.20;;;;;;4956428;28;96174;-85
2022/10/07 06:55:44;;;;;;;35.42;6.45;;;21.10;58.20;;;;;;4958554;28;88243;-86
2022/10/07 06:58:09;;;;;;;46.42;8.75;;;21.10;59.00;;;;;;4959965;28;87124;-86
2022/10/07 07:00:35;;;;;;;37.35;9.00;;;21.10;59.00;;;;;;4959670;28;87060;-86
2022/10/07 07:03:01;;;;;;;44.65;8.63;;;21.10;58.90;;;;;;4958117;28;88256;-86
2022/10/07 07:05:47;;;;;;;48.25;8.93;;;21.20;58.80;;;;;;4959421;28;88066;-86
2022/10/07 07:08:15;;;;;;;44.97;9.23;;;21.20;58.90;;;;;;4958942;28;87296;-86
2022/10/07 07:10:42;;;;;;;47.30;9.27;;;21.20;59.00;;;;;;4958587;28;87512;-85
2022/10/07 07:13:08;;;;;;;43.70;9.25;;;21.20;58.80;;;;;;4956996;28;87929;-88
2022/10/07 07:15:35;;;;;;;54.85;9.55;;;21.20;58.70;;;;;;4958282;28;91318;-86
2022/10/07 07:18:06;;;;;;;66.53;11.48;;;21.20;58.70;;;;;;4958843;28;88622;-86
2022/10/07 07:20:38;;;;;;;50.95;10.50;;;21.10;55.80;;;;;;4959752;28;87031;-85
2022/10/07 07:23:06;;;;;;;51.75;10.85;;;21.10;54.20;;;;;;4958278;28;88712;-85
2022/10/07 07:25:35;;;;;;;46.17;10.88;;;21.00;54.50;;;;;;4957362;28;88116;-86
2022/10/07 07:28:02;;;;;;;64.38;13.15;;;21.10;56.60;;;;;;4958111;28;87320;-86
2022/10/07 07:30:28;;;;;;;102.80;14.77;;;21.10;57.70;;;;;;4947566;28;87701;-86
2022/10/07 07:32:54;;;;;;;56.72;12.93;;;21.10;58.00;;;;;;4959109;28;87710;-85
2022/10/07 07:35:24;;;;;;;63.92;13.05;;;21.10;57.40;;;;;;4958790;28;88389;-85
2022/10/07 07:37:50;;;;;;;69.68;13.05;;;21.20;57.40;;;;;;4948190;28;87605;-86
2022/10/07 07:40:17;;;;;;;70.53;12.50;;;21.20;57.30;;;;;;4957486;28;87422;-86
2022/10/07 07:42:44;;;;;;;82.53;14.77;;;21.20;57.10;;;;;;4957123;28;88304;-85
2022/10/07 07:45:10;;;;;;;71.20;13.10;;;21.20;57.30;;;;;;4972848;28;92200;-85
2022/10/07 07:47:35;;;;;;;72.70;12.95;;;21.20;57.20;;;;;;4957711;28;87879;-86
2022/10/07 07:50:05;;;;;;;70.07;13.82;;;21.20;57.30;;;;;;4956628;28;87410;-86
2022/10/07 07:52:31;;;;;;;;;;;21.20;57.40;;;;;;4956107;28;88190;-86
2022/10/07 07:54:57;;;;;;;85.10;16.13;;;21.20;57.40;;;;;;4956873;28;87773;-85
2022/10/07 07:57:25;;;;;;;79.10;14.05;;;21.20;57.40;;;;;;4956504;28;87327;-86
2022/10/07 07:59:51;;;;;;;84.07;14.75;;;21.20;57.50;;;;;;4972582;28;86812;-86
2022/10/07 08:02:18;;;;;;;74.50;13.40;;;21.20;57.60;;;;;;4954912;28;93336;-86
2022/10/07 08:04:43;;;;;;;85.53;15.52;;;21.20;57.60;;;;;;4955705;28;88312;-85
2022/10/07 08:07:11;;;;;;;75.80;14.57;;;21.20;57.80;;;;;;4955616;28;88156;-85
2022/10/07 08:09:38;;;;;;;71.53;14.65;;;21.10;58.00;;;;;;4956074;28;87910;-84
2022/10/07 08:12:04;;;;;;;81.57;14.68;;;21.10;58.20;;;;;;4956664;28;88605;-85
2022/10/07 08:14:30;;;;;;;96.05;14.48;;;21.20;58.40;;;;;;4958529;28;87931;-85
2022/10/07 08:16:57;;;;;;;74.85;13.90;;;21.20;56.90;;;;;;4956888;28;87373;-84
2022/10/07 08:19:24;;;;;;;83.35;14.23;;;21.20;57.90;;;;;;4955986;28;89270;-87
2022/10/07 08:21:51;;;;;;;69.18;13.13;;;21.10;58.30;;;;;;4956210;28;90810;-87
2022/10/07 08:24:17;;;;;;;67.88;14.07;;;21.20;58.80;;;;;;4958889;28;93865;-85
2022/10/07 08:26:43;;;;;;;66.97;13.50;;;21.20;58.30;;;;;;4961855;28;87608;-87
2022/10/07 08:29:10;;;;;;;74.07;13.13;;;21.20;58.50;;;;;;4961001;28;87447;-87
2022/10/07 08:31:35;;;;;;;74.18;14.40;;;21.20;59.20;;;;;;4975087;28;91301;-86
2022/10/07 08:34:05;;;;;;;65.80;12.95;;;21.10;58.60;;;;;;4952179;28;90569;-87
2022/10/07 08:36:34;;;;;;;78.15;15.73;;;21.10;58.60;;;;;;4961289;28;87536;-86
2022/10/07 08:39:00;;;;;;;68.22;14.05;;;21.20;58.80;;;;;;4975354;28;90511;-86
2022/10/07 08:41:54;;;;;;;85.00;15.50;;;21.20;58.50;;;;;;4960583;28;87054;-85
2022/10/07 08:44:37;;;;;;;94.50;15.07;;;21.20;58.70;;;;;;4960109;28;91512;-84
2022/10/07 08:47:33;;;;;;;92.22;14.82;;;21.20;58.90;;;;;;4938065;28;87710;-85
2022/10/07 08:50:05;;;;;;;96.57;15.68;;;21.20;59.00;;;;;;4939302;28;87072;-85
2022/10/07 08:52:37;;;;;;;102.10;16.13;;;21.10;59.00;;;;;;4937961;28;88542;-86
2022/10/07 08:55:13;;;;;;;85.32;16.52;;;21.20;59.00;;;;;;4938513;28;88118;-85
2022/10/07 08:57:55;;;;;;;91.32;16.67;;;21.20;59.20;;;;;;4937822;28;87999;-85
2022/10/07 09:00:23;;;;;;;96.32;16.70;;;21.10;59.50;;;;;;4938473;28;87955;-84
2022/10/07 09:03:06;;;;;;;93.30;17.45;;;21.10;60.20;;;;;;4938418;28;88564;-85
2022/10/07 09:05:39;;;;;;;93.10;16.10;;;21.10;60.30;;;;;;4938938;28;92791;-86
2022/10/07 09:08:13;;;;;;;78.85;15.35;;;21.10;60.80;;;;;;4938945;28;87376;-86
2022/10/07 09:10:54;;;;;;;89.70;14.60;;;21.10;60.90;;;;;;4921569;28;90569;-87
2022/10/07 09:13:25;;;;;;;81.82;15.63;;;21.10;61.10;;;;;;4938786;28;88380;-87
2022/10/07 09:16:02;;;;;;;60.40;11.52;;;21.10;61.40;;;;;;4930420;28;92186;-86
2022/10/07 09:18:49;;;;;;;84.32;13.55;;;21.20;60.00;;;;;;4938259;28;87182;-87
2022/10/07 09:21:22;;;;;;;94.10;15.35;;;21.20;61.10;;;;;;4937962;28;87547;-86
2022/10/07 09:24:01;;;;;;;100.60;16.20;;;21.10;61.40;;;;;;4942377;28;89587;-87
2022/10/07 09:26:26;;;;;;;79.00;15.20;;;21.10;61.50;;;;;;4960253;28;93597;-88
2022/10/07 09:28:52;;;;;;;88.97;16.27;;;21.10;61.90;;;;;;4961061;28;87363;-88
2022/10/07 09:31:19;;;;;;;63.60;13.32;;;21.10;62.00;;;;;;4959671;28;89116;-86
2022/10/07 09:33:49;;;;;;;81.88;15.02;;;21.10;62.00;;;;;;4957642;28;90606;-87
2022/10/07 09:36:18;;;;;;;;;;;21.10;61.30;;;;;;4958698;28;89117;-87
2022/10/07 09:38:47;;;;;;;83.90;14.27;;;21.10;61.10;;;;;;4963631;28;87541;-86
2022/10/07 09:41:15;;;;;;;82.85;14.07;;;21.20;60.20;;;;;;4959765;28;88124;-85
2022/10/07 09:44:05;;;;;;;69.75;12.95;;;21.10;60.50;;;;;;4960618;28;88124;-86
2022/10/07 09:46:52;;;;;;;66.10;11.55;;;21.10;61.10;;;;;;4959046;28;90474;-86
2022/10/07 09:49:29;;;;;;;68.45;12.30;;;21.10;61.00;;;;;;4959891;28;87902;-85
2022/10/07 09:52:16;;;;;;;63.30;11.38;;;21.20;61.10;;;;;;4960224;28;87297;-85
2022/10/07 09:54:44;;;;;;;66.78;11.07;;;21.20;61.20;;;;;;4956533;28;91970;-85
2022/10/07 09:57:25;;;;;;;66.47;12.38;;;21.10;61.30;;;;;;4960126;28;88351;-85
2022/10/07 09:59:51;;;;;;;50.13;10.55;;;21.10;61.00;;;;;;4960257;28;87525;-86
2022/10/07 10:02:23;;;;;;;56.45;10.80;;;21.10;60.90;;;;;;4958173;28;90086;-85
2022/10/07 10:04:54;;;;;;;56.45;10.43;;;21.10;60.90;;;;;;4959790;28;88741;-85
2022/10/07 10:07:31;;;;;;;50.60;10.63;;;21.10;60.90;;;;;;4959760;28;87649;-84
2022/10/07 10:10:11;;;;;;;52.53;9.50;;;21.10;61.20;;;;;;4957167;28;87418;-86
2022/10/07 10:12:45;;;;;;;55.42;10.50;;;21.10;61.20;;;;;;4958306;28;94257;-85
2022/10/07 10:15:39;;;;;;;40.33;9.35;;;21.10;61.10;;;;;;4958587;28;89540;-85
2022/10/07 10:18:41;;;;;;;49.38;9.55;;;21.20;61.20;;;;;;4959761;28;89409;-86
2022/10/07 10:21:19;;;;;;;44.80;9.13;;;21.20;61.40;;;;;;4937559;28;87273;-84
2022/10/07 10:23:51;;;;;;;49.03;9.43;;;21.20;61.40;;;;;;4938146;28;87094;-84
2022/10/07 10:26:28;;;;;;;50.03;10.48;;;21.20;61.20;;;;;;4937918;28;93400;-84
2022/10/07 10:29:13;;;;;;;44.42;8.85;;;21.20;61.40;;;;;;4936146;28;88351;-84
2022/10/07 10:32:00;;;;;;;40.67;9.02;;;21.10;61.10;;;;;;4937040;28;87660;-84
2022/10/07 10:34:55;;;;;;;45.00;9.75;;;21.20;61.20;;;;;;4938235;28;87483;-84
2022/10/07 10:37:32;;;;;;;41.30;8.88;;;21.10;61.10;;;;;;4920486;28;90459;-85
2022/10/07 10:40:12;;;;;;;41.33;8.55;;;21.20;61.30;;;;;;4937942;28;87377;-84
2022/10/07 10:43:01;;;;;;;41.97;9.27;;;21.10;61.10;;;;;;4936986;28;88596;-82
2022/10/07 10:45:41;;;;;;;38.38;8.57;;;21.10;61.00;;;;;;4928885;28;89004;-82
2022/10/07 10:48:41;;;;;;;36.38;8.30;;;21.20;61.00;;;;;;4937809;28;88287;-84
2022/10/07 10:51:30;;;;;;;40.75;7.82;;;21.10;61.40;;;;;;4881887;28;91443;-84
2022/10/07 10:54:19;;;;;;;35.90;8.33;;;21.20;61.10;;;;;;4898568;28;87143;-84
2022/10/07 10:56:54;;;;;;;40.53;8.63;;;21.40;60.50;;;;;;4902963;28;87995;-84
2022/10/07 11:00:04;;;;;;;33.25;7.57;;;21.40;59.90;;;;;;4919021;28;93052;-84
2022/10/07 11:02:35;;;;;;;34.72;7.40;;;21.50;59.30;;;;;;4918238;28;92171;-84
2022/10/07 11:05:16;;;;;;;54.28;11.93;;;21.60;59.00;;;;;;4918199;28;87273;-84
2022/10/07 11:07:58;;;;;;;54.50;13.40;;;21.60;58.80;;;;;;4916858;28;88491;-86
2022/10/07 11:10:46;;;;;;;64.68;15.10;;;21.50;58.90;;;;;;4901137;28;91545;-85
2022/10/07 11:13:49;;;;;;;64.18;14.40;;;21.50;59.10;;;;;;4857408;29;88638;-85
2022/10/07 11:16:25;;;;;;;65.90;13.60;;;21.50;59.10;;;;;;4858722;29;87461;-86
2022/10/07 11:19:26;;;;;;;58.03;12.55;;;21.40;58.90;;;;;;4859204;29;87724;-84
2022/10/07 11:21:55;;;;;;;62.55;13.13;;;21.40;58.70;;;;;;4860524;29;87696;-85
2022/10/07 11:24:31;;;;;;;58.90;12.00;;;21.50;58.80;;;;;;4858651;29;88021;-84
2022/10/07 11:27:09;;;;;;;57.08;11.57;;;21.40;58.80;;;;;;4860871;28;86947;-84
2022/10/07 11:29:55;;;;;;;55.08;11.38;;;21.40;58.60;;;;;;4870826;28;86754;-84
2022/10/07 11:32:27;;;;;;;51.28;11.25;;;21.40;58.60;;;;;;4870786;28;91933;-84
2022/10/07 11:35:05;;;;;;;39.58;10.38;;;21.40;58.60;;;;;;4869077;28;88494;-85
2022/10/07 11:37:41;;;;;;;43.60;8.20;;;21.40;58.30;;;;;;4867906;28;88477;-85
2022/10/07 11:40:08;;;;;;;48.05;8.75;;;21.30;58.10;;;;;;4870326;28;87388;-85
2022/10/07 11:42:41;;;;;;;50.13;9.43;;;21.30;57.90;;;;;;4869215;28;88229;-85
2022/10/07 11:45:19;;;;;;;52.72;9.98;;;21.30;57.60;;;;;;4869952;28;88714;-85
2022/10/07 11:47:53;;;;;;;39.42;10.40;;;21.30;58.40;;;;;;4877653;28;87141;-85
2022/10/07 11:50:26;;;;;;;40.28;8.27;;;21.40;59.10;;;;;;4910132;28;92154;-85
2022/10/07 11:53:00;;;;;;;33.05;8.05;;;21.40;58.00;;;;;;4958324;28;87932;-85
2022/10/07 11:55:27;;;;;;;44.35;9.13;;;21.40;58.50;;;;;;4955107;28;88480;-84
2022/10/07 11:58:03;;;;;;;34.05;8.25;;;21.40;58.80;;;;;;4958779;28;87349;-84
2022/10/07 12:00:40;;;;;;;28.80;7.57;;;21.30;58.80;;;;;;4962083;28;87287;-84
2022/10/07 12:03:18;;;;;;;43.65;8.50;;;21.20;58.90;;;;;;4961680;28;89521;-84
2022/10/07 12:05:49;;;;;;;33.17;8.05;;;21.20;59.10;;;;;;4962442;28;89581;-84
2022/10/07 12:08:27;;;;;;;32.80;8.25;;;21.10;59.20;;;;;;4961739;28;87260;-84
2022/10/07 12:10:54;;;;;;;32.55;7.72;;;21.20;59.30;;;;;;4976153;28;90831;-84
2022/10/07 12:13:40;;;;;;;34.60;7.75;;;21.20;59.30;;;;;;4961365;28;88433;-84
2022/10/07 12:16:28;;;;;;;41.22;8.23;;;21.20;59.40;;;;;;4960428;28;87619;-84
2022/10/07 12:19:06;;;;;;;33.70;8.60;;;21.10;59.40;;;;;;4962097;28;87370;-84
2022/10/07 12:22:01;;;;;;;31.05;7.78;;;21.10;59.60;;;;;;4959597;28;87704;-85
2022/10/07 12:24:29;;;;;;;31.42;7.88;;;21.20;59.40;;;;;;4960272;28;87711;-85
2022/10/07 12:27:25;;;;;;;28.15;7.30;;;21.20;59.50;;;;;;4960826;28;87532;-85
2022/10/07 12:29:59;;;;;;;26.45;7.55;;;21.30;59.30;;;;;;4961010;28;88487;-85
2022/10/07 12:32:49;;;;;;;30.23;7.47;;;21.40;59.50;;;;;;4934059;28;94106;-85
2022/10/07 12:35:33;;;;;;;35.70;7.47;;;21.40;59.20;;;;;;4960113;28;92440;-85
2022/10/07 12:38:12;;;;;;;30.88;7.50;;;21.50;59.30;;;;;;4960787;28;87404;-85
2022/10/07 12:40:39;;;;;;;27.15;6.22;;;21.50;59.30;;;;;;4961020;28;87648;-85
2022/10/07 12:43:36;;;;;;;32.95;7.50;;;21.50;59.30;;;;;;4958445;28;89440;-85
2022/10/07 12:46:22;;;;;;;28.98;6.82;;;21.50;59.20;;;;;;4960177;28;88368;-85
2022/10/07 12:48:59;;;;;;;28.27;6.75;;;21.60;59.00;;;;;;4960459;28;87430;-85
2022/10/07 12:51:36;;;;;;;36.55;6.22;;;21.70;58.10;;;;;;4960570;28;87397;-85
2022/10/07 12:54:08;;;;;;;28.13;6.78;;;21.80;58.60;;;;;;4960723;28;88207;-85
2022/10/07 12:56:34;;;;;;;30.40;6.20;;;21.70;58.60;;;;;;4960468;28;88947;-85
2022/10/07 12:59:48;;;;;;;24.48;6.63;;;21.80;58.70;;;;;;4961432;28;88913;-85
2022/10/07 13:02:51;;;;;;;28.50;7.07;;;21.70;59.40;;;;;;4923209;28;86791;-85
2022/10/07 13:05:50;;;;;;;25.20;6.43;;;21.70;58.90;;;;;;4937727;28;87516;-85
2022/10/07 13:08:53;;;;;;;28.02;5.75;;;21.70;59.00;;;;;;4938381;28;87636;-85
2022/10/07 13:11:57;;;;;;;21.42;6.13;;;21.70;59.00;;;;;;4908941;28;92310;-85
2022/10/07 13:14:29;;;;;;;34.85;6.75;;;21.80;59.20;;;;;;4909846;28;87377;-85
2022/10/07 13:17:08;;;;;;;23.10;6.03;;;21.80;59.20;;;;;;4902868;28;89926;-85